Time;durP1;ratioP1;P1;durP2;ratioP2;P2;SDS_P1;SDS_P2;PMS_P1;PMS_P2;Temp;Humidity;BMP_temperature;BMP_pressure;BME280_temperature;BME280_humidity;BME280_pressure;Samples;Min_cycle;Max_cycle;Signal;HPM_P1;HPM_P2
2021/01/14 00:01:31;;;;;;;;;;;;;;;19.25;59.78;100423.22;5065813;28;1889;-62
2021/01/14 00:03:57;;;;;;;;;;;;;;;19.18;59.53;100438.19;5066927;28;1724;-62
2021/01/14 00:06:22;;;;;;;;;;;;;;;19.14;59.64;100437.66;5067085;28;1803;-62
2021/01/14 00:08:47;;;;;;;;;;;;;;;19.06;59.86;100441.06;5064356;28;1814;-60
2021/01/14 00:11:13;;;;;;;;;;;;;;;19.02;59.89;100444.16;5060727;28;1755;-62
2021/01/14 00:13:39;;;;;;;;;;;;;;;18.95;59.70;100456.44;5037651;28;1580;-60
2021/01/14 00:16:04;;;;;;;;;;;;;;;18.91;59.65;100444.31;5046682;28;1786;-60
2021/01/14 00:18:30;;;;;;;;;;;;;;;18.87;60.14;100452.63;5042426;28;1588;-62
2021/01/14 00:20:55;;;;;;;;;;;;;;;18.80;60.10;100450.66;5049721;28;1913;-62
2021/01/14 00:23:20;;;;;;;;;;;;;;;18.77;60.21;100445.56;5042408;28;1703;-62
2021/01/14 00:25:46;;;;;;;;;;;;;;;18.74;59.79;100457.44;5048286;28;1770;-60
2021/01/14 00:28:11;;;;;;;;;;;;;;;18.71;59.76;100446.97;5046646;28;1668;-60
2021/01/14 00:30:37;;;;;;;;;;;;;;;18.71;59.97;100438.09;5050640;28;1699;-62
2021/01/14 00:33:02;;;;;;;;;;;;;;;18.65;59.97;100443.03;5042268;28;1833;-62
2021/01/14 00:35:28;;;;;;;;;;;;;;;18.66;59.96;100455.44;5049767;28;1596;-60
2021/01/14 00:37:53;;;;;;;;;;;;;;;18.58;59.68;100466.03;5042685;28;1825;-60
2021/01/14 00:40:30;;;;;;;;;;;;;;;18.56;60.29;100459.09;5046576;28;1878;-60
2021/01/14 00:43:00;;;;;;;;;;;;;;;18.54;59.75;100456.53;5036106;28;1600;-62
2021/01/14 00:45:26;;;;;;;;;;;;;;;18.56;59.69;100468.00;5042535;28;1703;-62
2021/01/14 00:47:52;;;;;;;;;;;;;;;18.57;59.72;100471.50;5044665;28;1751;-62
2021/01/14 00:50:17;;;;;;;;;;;;;;;18.52;59.78;100463.03;5046163;28;1660;-60
2021/01/14 00:52:43;;;;;;;;;;;;;;;18.55;59.46;100468.97;5043919;28;1810;-60
2021/01/14 00:55:08;;;;;;;;;;;;;;;18.52;59.12;100461.19;5049148;28;1700;-60
2021/01/14 00:57:35;;;;;;;;;;;;;;;18.57;58.86;100472.34;5041499;28;1663;-62
2021/01/14 01:00:02;;;;;;;;;;;;;;;18.54;59.02;100461.06;5040773;28;1751;-60
2021/01/14 01:02:28;;;;;;;;;;;;;;;18.53;59.13;100468.25;5040680;28;1967;-60
2021/01/14 01:04:53;;;;;;;;;;;;;;;18.49;59.39;100465.00;5045239;28;1732;-60
2021/01/14 01:07:19;;;;;;;;;;;;;;;18.49;59.39;100467.69;5040901;28;1675;-61
2021/01/14 01:09:44;;;;;;;;;;;;;;;18.48;59.30;100468.69;5045905;28;1673;-62
2021/01/14 01:12:10;;;;;;;;;;;;;;;18.48;58.63;100465.16;5054438;28;1747;-60
2021/01/14 01:14:36;;;;;;;;;;;;;;;18.47;59.44;100460.78;5067123;28;1692;-62
2021/01/14 01:17:01;;;;;;;;;;;;;;;18.45;58.39;100473.47;5056162;28;1653;-60
2021/01/14 01:19:26;;;;;;;;;;;;;;;18.44;59.30;100467.28;5060117;28;1751;-60
2021/01/14 01:21:52;;;;;;;;;;;;;;;18.44;58.98;100466.41;5055763;28;1967;-62
2021/01/14 01:24:17;;;;;;;;;;;;;;;18.38;58.93;100458.94;5056104;28;1467;-62
2021/01/14 01:26:43;;;;;;;;;;;;;;;18.37;58.75;100457.25;5061264;28;1715;-60
2021/01/14 01:29:09;;;;;;;;;;;;;;;18.33;58.84;100454.00;5066485;28;1656;-62
2021/01/14 01:31:37;;;;;;;;;;;;;;;18.29;58.43;100437.38;5063761;28;1895;-62
2021/01/14 01:34:03;;;;;;;;;;;;;;;18.29;58.94;100448.06;5063748;28;1573;-60
2021/01/14 01:36:28;;;;;;;;;;;;;;;18.31;58.67;100447.94;5066626;28;1597;-62
2021/01/14 01:38:53;;;;;;;;;;;;;;;18.22;58.33;100446.97;5062658;28;1735;-62
2021/01/14 01:41:19;;;;;;;;;;;;;;;18.28;58.19;100445.53;5047596;28;1877;-62
2021/01/14 01:43:44;;;;;;;;;;;;;;;18.24;58.03;100445.00;5066990;28;1695;-60
2021/01/14 01:46:11;;;;;;;;;;;;;;;18.23;58.09;100429.91;5043107;28;1621;-60
2021/01/14 01:48:36;;;;;;;;;;;;;;;18.22;58.90;100436.25;5067996;28;1652;-62
2021/01/14 01:51:02;;;;;;;;;;;;;;;18.20;58.23;100437.34;5064791;28;1755;-62
2021/01/14 01:53:29;;;;;;;;;;;;;;;18.18;58.51;100439.31;5062166;28;1656;-62
2021/01/14 01:55:55;;;;;;;;;;;;;;;18.16;58.40;100434.09;5067500;28;1742;-60
2021/01/14 01:58:21;;;;;;;;;;;;;;;18.16;58.59;100438.63;5060260;28;1802;-61
2021/01/14 02:00:47;;;;;;;;;;;;;;;18.17;58.29;100438.50;5065671;28;1945;-60
2021/01/14 02:03:13;;;;;;;;;;;;;;;18.13;57.96;100431.72;5065058;28;1715;-62
2021/01/14 02:05:38;;;;;;;;;;;;;;;18.15;57.88;100423.56;5063176;28;1664;-62
2021/01/14 02:08:22;;;;;;;;;;;;;;;18.18;57.95;100426.78;5067445;28;1818;-60
2021/01/14 02:10:50;;;;;;;;;;;;;;;18.16;58.17;100415.38;5053222;28;1661;-60
2021/01/14 02:13:15;;;;;;;;;;;;;;;18.15;57.69;100419.03;5041041;28;1778;-60
2021/01/14 02:15:42;;;;;;;;;;;;;;;18.17;57.89;100418.91;5034229;28;1827;-61
2021/01/14 02:18:07;;;;;;;;;;;;;;;18.17;57.65;100427.78;5034788;28;1882;-61
2021/01/14 02:20:34;;;;;;;;;;;;;;;18.17;57.16;100422.44;5043573;28;1991;-62
2021/01/14 02:23:02;;;;;;;;;;;;;;;18.16;57.90;100409.19;5040889;28;1802;-62
2021/01/14 02:25:30;;;;;;;;;;;;;;;18.15;57.30;100408.34;5041715;28;1565;-62
2021/01/14 02:27:56;;;;;;;;;;;;;;;18.17;57.59;100416.25;5047321;28;1608;-60
2021/01/14 02:30:22;;;;;;;;;;;;;;;18.12;57.68;100410.44;5046281;28;1754;-62
2021/01/14 02:32:47;;;;;;;;;;;;;;;18.13;57.81;100413.00;5042954;28;1707;-62
2021/01/14 02:35:13;;;;;;;;;;;;;;;18.12;56.88;100403.25;5043883;28;1648;-62
2021/01/14 02:37:38;;;;;;;;;;;;;;;18.13;57.88;100406.78;5045688;28;1798;-60
2021/01/14 02:40:04;;;;;;;;;;;;;;;18.10;57.12;100405.22;5039013;28;1822;-62
2021/01/14 02:42:29;;;;;;;;;;;;;;;18.05;57.88;100402.13;5035755;28;1882;-63
2021/01/14 02:44:55;;;;;;;;;;;;;;;18.05;56.76;100399.47;5043507;28;1763;-62
2021/01/14 02:47:21;;;;;;;;;;;;;;;18.02;57.41;100391.69;5042584;28;1722;-62
2021/01/14 02:49:53;;;;;;;;;;;;;;;17.99;57.59;100402.69;5037551;28;1711;-60
2021/01/14 02:52:19;;;;;;;;;;;;;;;17.99;56.54;100397.34;5048093;28;1647;-60
2021/01/14 02:54:46;;;;;;;;;;;;;;;18.03;57.18;100414.81;5042517;28;1683;-60
2021/01/14 02:57:11;;;;;;;;;;;;;;;17.99;57.68;100410.72;5044080;28;1691;-60
2021/01/14 02:59:38;;;;;;;;;;;;;;;17.99;57.41;100402.69;5046100;28;1628;-62
2021/01/14 03:02:03;;;;;;;;;;;;;;;17.94;56.81;100411.09;5031792;23;2152;-48
2021/01/14 03:04:28;;;;;;;;;;;;;;;17.95;57.16;100396.75;5013586;28;2134;-48
2021/01/14 03:06:54;;;;;;;;;;;;;;;17.79;59.71;100407.94;5013428;28;1908;-48
2021/01/14 03:09:19;;;;;;;;;;;;;;;17.66;59.99;100412.69;5012775;28;2044;-49
2021/01/14 03:11:44;;;;;;;;;;;;;;;17.60;60.59;100399.84;5043897;23;3537;-60
2021/01/14 03:14:10;;;;;;;;;;;;;;;17.54;60.33;100403.91;5047560;28;1756;-60
2021/01/14 03:16:36;;;;;;;;;;;;;;;17.49;60.69;100407.00;5025815;28;1653;-60
2021/01/14 03:19:01;;;;;;;;;;;;;;;17.46;60.41;100401.91;5042281;28;1697;-61
2021/01/14 03:21:27;;;;;;;;;;;;;;;17.42;60.93;100411.19;5045652;28;1981;-62
2021/01/14 03:23:53;;;;;;;;;;;;;;;17.46;60.77;100422.44;5031425;28;1387;-60
2021/01/14 03:26:19;;;;;;;;;;;;;;;17.41;60.91;100409.50;5033806;28;1693;-60
2021/01/14 03:28:44;;;;;;;;;;;;;;;17.41;61.23;100414.84;5028054;28;1831;-60
2021/01/14 03:31:10;;;;;;;;;;;;;;;17.40;60.57;100413.13;5029102;28;1705;-60
2021/01/14 03:33:36;;;;;;;;;;;;;;;17.41;60.83;100424.69;5041156;28;1752;-60
2021/01/14 03:36:04;;;;;;;;;;;;;;;17.38;61.24;100409.75;5050856;28;1890;-62
2021/01/14 03:38:30;;;;;;;;;;;;;;;17.39;61.13;100424.81;5046956;28;1592;-62
2021/01/14 03:40:55;;;;;;;;;;;;;;;17.38;61.00;100431.13;5037066;28;1902;-60
2021/01/14 03:43:21;;;;;;;;;;;;;;;17.38;61.58;100425.78;5038775;28;1827;-62
2021/01/14 03:45:46;;;;;;;;;;;;;;;17.35;61.17;100426.06;5047380;28;1728;-61
2021/01/14 03:48:12;;;;;;;;;;;;;;;17.38;62.93;100425.78;5045688;28;1855;-63
2021/01/14 03:50:37;;;;;;;;;;;;;;;17.36;63.97;100422.41;5043682;28;1775;-63
2021/01/14 03:53:02;;;;;;;;;;;;;;;17.36;64.41;100422.41;5043716;28;1760;-61
2021/01/14 03:55:28;;;;;;;;;;;;;;;17.34;64.09;100424.38;5044022;28;1601;-61
2021/01/14 03:57:53;;;;;;;;;;;;;;;17.30;64.86;100412.25;5049118;28;1768;-61
2021/01/14 04:00:19;;;;;;;;;;;;;;;17.32;65.12;100415.63;5046657;28;1819;-60
2021/01/14 04:02:44;;;;;;;;;;;;;;;17.27;65.38;100413.38;5044617;28;1933;-62
2021/01/14 04:05:11;;;;;;;;;;;;;;;17.24;65.15;100413.63;5062633;28;1799;-60
2021/01/14 04:07:36;;;;;;;;;;;;;;;17.22;66.07;100404.06;5068786;28;1931;-61
2021/01/14 04:10:02;;;;;;;;;;;;;;;17.23;65.82;100411.06;5067526;28;1889;-60
2021/01/14 04:12:28;;;;;;;;;;;;;;;17.21;65.51;100405.00;5058916;28;1795;-63
2021/01/14 04:14:57;;;;;;;;;;;;;;;17.19;65.76;100418.53;5068666;28;1661;-61
2021/01/14 04:17:23;;;;;;;;;;;;;;;17.18;65.87;100411.47;5063715;28;1802;-62
2021/01/14 04:19:48;;;;;;;;;;;;;;;17.19;65.76;100409.66;5065189;28;1747;-61
2021/01/14 04:22:14;;;;;;;;;;;;;;;17.17;65.68;100392.91;5066212;28;1960;-60
2021/01/14 04:24:39;;;;;;;;;;;;;;;17.17;66.56;100390.22;5050908;28;1684;-60
2021/01/14 04:27:05;;;;;;;;;;;;;;;17.18;66.55;100402.63;5068255;28;1774;-62
2021/01/14 04:29:31;;;;;;;;;;;;;;;17.19;65.91;100398.97;5043665;28;1737;-62
2021/01/14 04:31:56;;;;;;;;;;;;;;;17.15;66.21;100394.84;5059191;28;1736;-63
2021/01/14 04:34:21;;;;;;;;;;;;;;;17.11;65.88;100383.63;5067172;28;1752;-60
2021/01/14 04:36:47;;;;;;;;;;;;;;;17.16;66.05;100393.91;5068303;28;1775;-61
2021/01/14 04:39:12;;;;;;;;;;;;;;;17.18;65.70;100394.59;5049265;28;1609;-62
2021/01/14 04:41:48;;;;;;;;;;;;;;;17.15;64.60;100392.19;5046618;28;1893;-63
2021/01/14 04:44:13;;;;;;;;;;;;;;;17.16;64.57;100393.91;5070255;28;1810;-61
2021/01/14 04:46:40;;;;;;;;;;;;;;;17.14;65.02;100379.81;5045663;28;1728;-60
2021/01/14 04:49:06;;;;;;;;;;;;;;;17.13;65.04;100372.78;5065291;28;1815;-62
2021/01/14 04:51:32;;;;;;;;;;;;;;;17.15;65.10;100386.84;5067981;28;1747;-63
2021/01/14 04:54:02;;;;;;;;;;;;;;;17.15;64.07;100374.34;5062687;28;1699;-61
2021/01/14 04:56:32;;;;;;;;;;;;;;;17.14;64.25;100380.66;5069408;28;1657;-60
2021/01/14 04:59:01;;;;;;;;;;;;;;;17.16;64.11;100393.91;5065710;28;1752;-60
2021/01/14 05:01:27;;;;;;;;;;;;;;;17.13;64.15;100383.47;5046499;28;1871;-60
2021/01/14 05:03:53;;;;;;;;;;;;;;;17.09;64.01;100383.75;5051307;28;1654;-60
2021/01/14 05:06:19;;;;;;;;;;;;;;;17.06;64.15;100384.00;5069277;28;1743;-61
2021/01/14 05:08:45;;;;;;;;;;;;;;;17.07;64.23;100383.03;5063693;28;1820;-62
2021/01/14 05:11:12;;;;;;;;;;;;;;;17.03;64.52;100394.97;5065988;28;1744;-61
2021/01/14 05:13:39;;;;;;;;;;;;;;;17.02;64.50;100393.25;5065204;28;1740;-62
2021/01/14 05:16:04;;;;;;;;;;;;;;;16.99;63.65;100382.84;5069477;28;1900;-62
2021/01/14 05:18:30;;;;;;;;;;;;;;;17.03;64.02;100389.63;5053756;28;1708;-62
2021/01/14 05:20:59;;;;;;;;;;;;;;;16.97;63.79;100383.94;5065865;28;2100;-61
2021/01/14 05:23:25;;;;;;;;;;;;;;;16.95;63.70;100383.22;5064299;28;1807;-62
2021/01/14 05:25:53;;;;;;;;;;;;;;;16.95;64.45;100383.22;5063102;28;1814;-62
2021/01/14 05:28:19;;;;;;;;;;;;;;;16.95;64.42;100384.09;5037471;28;1792;-63
2021/01/14 05:30:44;;;;;;;;;;;;;;;16.93;63.83;100362.00;5061068;28;1842;-61
2021/01/14 05:33:20;;;;;;;;;;;;;;;16.96;64.66;100388.44;5064241;28;1625;-60
2021/01/14 05:35:49;;;;;;;;;;;;;;;16.93;63.69;100371.81;5061529;28;1725;-61
2021/01/14 05:38:19;;;;;;;;;;;;;;;16.90;64.04;100368.44;5069084;28;1814;-61
2021/01/14 05:41:10;;;;;;;;;;;;;;;16.88;64.32;100370.41;5063012;28;1897;-62
2021/01/14 05:43:30;;;;;;;;;;;;;;;16.87;64.15;100373.19;5060796;28;1583;-62
2021/01/14 05:46:12;;;;;;;;;;;;;;;16.88;64.01;100377.56;5053914;28;1676;-62
2021/01/14 05:48:38;;;;;;;;;;;;;;;16.89;63.72;100372.09;5063220;28;1621;-62
2021/01/14 05:51:13;;;;;;;;;;;;;;;16.88;64.37;100390.91;5054087;28;1984;-62
2021/01/14 05:53:52;;;;;;;;;;;;;;;16.89;63.54;100376.56;5062389;28;1848;-60
2021/01/14 05:56:22;;;;;;;;;;;;;;;16.88;63.30;100374.91;5068837;28;1740;-61
2021/01/14 05:58:51;;;;;;;;;;;;;;;16.92;64.16;100365.66;5064270;28;1733;-62
2021/01/14 06:01:17;;;;;;;;;;;;;;;16.94;63.35;100384.22;5063651;28;1882;-62
2021/01/14 06:03:43;;;;;;;;;;;;;;;16.91;64.59;100374.66;5066036;28;1798;-60
2021/01/14 06:06:14;;;;;;;;;;;;;;;16.94;63.26;100379.72;5060226;28;1680;-63
2021/01/14 06:08:40;;;;;;;;;;;;;;;16.93;63.48;100382.50;5067171;28;1760;-60
2021/01/14 06:11:16;;;;;;;;;;;;;;;16.94;63.21;100384.22;5063020;28;1823;-61
2021/01/14 06:13:41;;;;;;;;;;;;;;;16.92;63.36;100368.31;5065920;28;1760;-60
2021/01/14 06:16:07;;;;;;;;;;;;;;;16.94;63.03;100366.34;5060070;28;1786;-62
2021/01/14 06:18:32;;;;;;;;;;;;;;;16.93;63.29;100370.03;5067663;28;1554;-62
2021/01/14 06:20:58;;;;;;;;;;;;;;;16.93;63.25;100356.66;5064126;28;1925;-62
2021/01/14 06:23:23;;;;;;;;;;;;;;;16.91;63.21;100380.00;5044773;28;1692;-61
2021/01/14 06:25:50;;;;;;;;;;;;;;;16.89;63.35;100373.91;5046960;28;1696;-60
2021/01/14 06:28:17;;;;;;;;;;;;;;;16.91;62.93;100363.97;5062542;28;1574;-61
2021/01/14 06:31:07;;;;;;;;;;;;;;;16.90;62.92;100363.09;5061101;28;1659;-60
2021/01/14 06:33:33;;;;;;;;;;;;;;;16.89;63.22;100371.22;5061024;28;1669;-61
2021/01/14 06:36:08;;;;;;;;;;;;;;;16.90;63.10;100375.59;5065001;28;1683;-61
2021/01/14 06:38:40;;;;;;;;;;;;;;;16.91;64.23;100388.00;5053464;28;1818;-62
2021/01/14 06:41:12;;;;;;;;;;;;;;;17.02;63.82;100395.91;5062745;28;1943;-63
2021/01/14 06:43:40;;;;;;;;;;;;;;;17.00;63.33;100395.22;5036979;28;1439;-62
2021/01/14 06:46:13;;;;;;;;;;;;;;;17.02;65.39;100382.56;5051976;28;1478;-62
2021/01/14 06:48:44;;;;;;;;;;;;;;;16.99;64.66;100384.66;5039150;28;1653;-62
2021/01/14 06:51:14;;;;;;;;;;;;;;;16.98;65.38;100391.00;5043154;28;1602;-60
2021/01/14 06:53:39;;;;;;;;;;;;;;;16.90;64.62;100380.94;5058958;28;1830;-62
2021/01/14 06:56:07;;;;;;;;;;;;;;;16.84;64.37;100390.31;5055121;28;1672;-62
2021/01/14 06:58:38;;;;;;;;;;;;;;;16.88;63.89;100377.56;5060771;28;1673;-67
2021/01/14 07:01:04;;;;;;;;;;;;;;;16.76;65.02;100386.59;5062285;28;1956;-62
2021/01/14 07:03:38;;;;;;;;;;;;;;;16.54;66.56;100388.41;5054848;28;1609;-63
2021/01/14 07:06:04;;;;;;;;;;;;;;;16.49;64.49;100380.78;5065943;28;1795;-63
2021/01/14 07:08:40;;;;;;;;;;;;;;;16.44;63.41;100369.63;5044713;28;1740;-63
2021/01/14 07:11:11;;;;;;;;;;;;;;;16.44;63.03;100380.31;5061956;28;1651;-62
2021/01/14 07:13:46;;;;;;;;;;;;;;;16.53;62.51;100385.84;5059786;28;1751;-62
2021/01/14 07:16:13;;;;;;;;;;;;;;;16.66;62.35;100383.84;5055798;28;1722;-63
2021/01/14 07:18:39;;;;;;;;;;;;;;;16.72;61.65;100386.00;5055792;28;1589;-63
2021/01/14 07:21:07;;;;;;;;;;;;;;;16.66;62.39;100382.03;5068805;28;1979;-62
2021/01/14 07:23:36;;;;;;;;;;;;;;;16.72;61.75;100386.00;5059049;28;1644;-63
2021/01/14 07:26:02;;;;;;;;;;;;;;;16.62;61.91;100385.94;5061322;28;1772;-63
2021/01/14 07:28:27;;;;;;;;;;;;;;;16.34;61.28;100381.22;5066437;28;1593;-61
2021/01/14 07:30:52;;;;;;;;;;;;;;;16.37;62.83;100359.59;5059246;28;1624;-63
2021/01/14 07:33:27;;;;;;;;;;;;;;;16.59;60.95;100375.53;5052286;28;1429;-62
2021/01/14 07:35:54;;;;;;;;;;;;;;;16.76;60.92;100381.25;5065439;28;1738;-63
2021/01/14 07:38:20;;;;;;;;;;;;;;;16.86;60.01;100382.19;5062519;28;1643;-62
2021/01/14 07:40:46;;;;;;;;;;;;;;;16.83;58.93;100371.75;5039678;28;1964;-63
2021/01/14 07:43:13;;;;;;;;;;;;;;;17.08;58.20;100395.41;5060837;28;1641;-62
2021/01/14 07:45:39;;;;;;;;;;;;;;;17.33;57.90;100382.59;5065175;28;1818;-60
2021/01/14 07:48:17;;;;;;;;;;;;;;;17.62;58.47;100363.13;5060681;28;1684;-62
2021/01/14 07:50:56;;;;;;;;;;;;;;;17.89;57.51;100367.88;5063160;28;1899;-63
2021/01/14 07:53:22;;;;;;;;;;;;;;;18.09;57.74;100366.09;5054290;28;1720;-64
2021/01/14 07:55:48;;;;;;;;;;;;;;;18.33;57.10;100363.00;5064441;28;1661;-63
2021/01/14 07:58:14;;;;;;;;;;;;;;;18.49;57.60;100362.44;5059015;28;1647;-61
2021/01/14 08:00:40;;;;;;;;;;;;;;;18.55;58.28;100359.19;5057865;28;1905;-61
2021/01/14 08:03:15;;;;;;;;;;;;;;;18.65;57.82;100354.66;5052845;28;1656;-61
2021/01/14 08:05:44;;;;;;;;;;;;;;;18.87;56.88;100348.16;5057657;28;1695;-62
2021/01/14 08:08:26;;;;;;;;;;;;;;;19.02;57.97;100351.22;5060087;28;1905;-61
2021/01/14 08:11:27;;;;;;;;;;;;;;;19.20;56.88;100339.72;5059360;28;1947;-61
2021/01/14 08:14:01;;;;;;;;;;;;;;;19.35;56.63;100332.88;4987183;28;1738;-63
2021/01/14 08:16:30;;;;;;;;;;;;;;;19.43;56.99;100332.97;5041152;28;1646;-61
2021/01/14 08:19:17;;;;;;;;;;;;;;;19.51;56.48;100329.56;5069483;28;1630;-62
2021/01/14 08:21:43;;;;;;;;;;;;;;;19.58;56.88;100344.06;5057365;28;1914;-62
2021/01/14 08:24:09;;;;;;;;;;;;;;;19.63;56.52;100336.41;5057221;28;1545;-69
2021/01/14 08:26:50;;;;;;;;;;;;;;;19.72;56.35;100323.97;5044559;28;1677;-64
2021/01/14 08:29:27;;;;;;;;;;;;;;;19.77;55.38;100332.41;5056052;28;1852;-60
2021/01/14 08:31:52;;;;;;;;;;;;;;;19.74;55.93;100322.00;5057622;28;1652;-56
2021/01/14 08:34:18;;;;;;;;;;;;;;;19.65;55.37;100339.78;5051150;28;1736;-68
2021/01/14 08:36:44;;;;;;;;;;;;;;;19.65;56.35;100323.69;5057300;28;813;-64
2021/01/14 08:39:10;;;;;;;;;;;;;;;19.62;54.47;100345.47;5045032;28;1482;-64
2021/01/14 08:41:36;;;;;;;;;;;;;;;19.56;55.43;100339.88;5037124;28;1893;-65
2021/01/14 08:44:02;;;;;;;;;;;;;;;19.54;56.65;100357.94;5019684;28;1297;-64
2021/01/14 08:46:40;;;;;;;;;;;;;;;19.44;56.74;100345.41;5037063;28;713;-60
2021/01/14 08:49:12;;;;;;;;;;;;;;;19.45;57.42;100343.56;5019438;28;1325;-60
2021/01/14 08:51:41;;;;;;;;;;;;;;;19.42;57.97;100355.44;5050292;28;1629;-60
2021/01/14 08:54:06;;;;;;;;;;;;;;;19.40;57.60;100348.56;5056835;28;749;-60
2021/01/14 08:56:32;;;;;;;;;;;;;;;19.37;57.91;100347.00;5056851;28;781;-64
2021/01/14 08:59:10;;;;;;;;;;;;;;;19.35;57.74;100343.63;5056670;28;730;-60
2021/01/14 09:01:36;;;;;;;;;;;;;;;19.29;58.53;100341.53;5056785;28;1965;-64
2021/01/14 09:04:04;;;;;;;;;;;;;;;19.30;58.09;100334.31;5055611;28;1321;-60
2021/01/14 09:06:39;;;;;;;;;;;;;;;19.28;58.75;100335.31;5038936;28;1269;-64
2021/01/14 09:09:09;;;;;;;;;;;;;;;19.25;58.42;100335.59;5055556;28;1168;-66
2021/01/14 09:11:35;;;;;;;;;;;;;;;19.28;58.24;100326.44;5038634;28;1201;-61
2021/01/14 09:14:04;;;;;;;;;;;;;;;18.81;58.86;100321.94;5056700;28;758;-59
2021/01/14 09:16:29;;;;;;;;;;;;;;;19.00;57.37;100329.09;5056139;28;784;-60
2021/01/14 09:18:55;;;;;;;;;;;;;;;19.11;57.29;100324.53;5056271;28;844;-59
2021/01/14 09:21:20;;;;;;;;;;;;;;;19.13;57.11;100317.19;5056422;28;1977;-60
2021/01/14 09:23:45;;;;;;;;;;;;;;;19.11;57.18;100305.78;5056482;28;813;-59
2021/01/14 09:26:14;;;;;;;;;;;;;;;19.11;56.70;100311.97;5056180;28;884;-59
2021/01/14 09:28:41;;;;;;;;;;;;;;;19.13;56.97;100318.03;5056075;28;1641;-60
2021/01/14 09:31:08;;;;;;;;;;;;;;;19.20;57.19;100296.84;5056212;28;841;-60
2021/01/14 09:33:38;;;;;;;;;;;;;;;19.28;58.51;100302.31;5048938;28;1353;-59
2021/01/14 09:36:08;;;;;;;;;;;;;;;19.18;58.80;100272.88;5055889;28;1239;-60
2021/01/14 09:38:41;;;;;;;;;;;;;;;19.18;59.26;100288.09;5055638;28;1320;-59
2021/01/14 09:41:06;;;;;;;;;;;;;;;19.20;59.13;100286.97;5055952;28;1953;-59
2021/01/14 09:43:33;;;;;;;;;;;;;;;19.23;58.71;100288.50;5056031;28;803;-60
2021/01/14 09:45:59;;;;;;;;;;;;;;;19.30;58.65;100270.84;5056052;28;822;-60
2021/01/14 09:48:24;;;;;;;;;;;;;;;19.36;58.63;100275.59;5055805;28;809;-61
2021/01/14 09:50:53;;;;;;;;;;;;;;;19.48;58.67;100279.75;5055798;28;742;-61
2021/01/14 09:53:18;;;;;;;;;;;;;;;19.45;58.67;100268.50;5055813;28;792;-60
2021/01/14 09:55:44;;;;;;;;;;;;;;;19.41;58.85;100262.56;5055505;28;802;-59
2021/01/14 09:58:18;;;;;;;;;;;;;;;19.36;60.20;100246.13;5055773;28;730;-61
2021/01/14 10:00:45;;;;;;;;;;;;;;;19.33;60.36;100253.59;5055608;28;1964;-60
2021/01/14 10:03:12;;;;;;;;;;;;;;;19.28;60.35;100256.75;5055455;28;943;-60
2021/01/14 10:05:37;;;;;;;;;;;;;;;19.31;60.32;100244.88;5055152;28;1426;-60
2021/01/14 10:08:11;;;;;;;;;;;;;;;19.30;59.81;100227.94;5034197;28;1499;-60
2021/01/14 10:10:36;;;;;;;;;;;;;;;19.21;60.47;100244.94;5035401;28;1174;-60
2021/01/14 10:13:01;;;;;;;;;;;;;;;19.16;60.51;100231.97;5046354;28;1320;-60
2021/01/14 10:15:26;;;;;;;;;;;;;;;19.16;60.63;100236.47;5055145;28;828;-60
2021/01/14 10:17:52;;;;;;;;;;;;;;;19.13;61.01;100226.06;5055389;28;824;-60
2021/01/14 10:20:17;;;;;;;;;;;;;;;19.08;60.50;100213.97;5055126;28;789;-60
2021/01/14 10:22:45;;;;;;;;;;;;;;;19.06;60.73;100207.06;5037493;28;1910;-60
2021/01/14 10:25:11;;;;;;;;;;;;;;;19.05;60.21;100186.63;5054890;28;1551;-60
2021/01/14 10:27:36;;;;;;;;;;;;;;;18.98;60.20;100178.34;5054708;28;1305;-61
2021/01/14 10:30:18;;;;;;;;;;;;;;;18.98;60.49;100185.50;5054819;28;1492;-60
2021/01/14 10:32:44;;;;;;;;;;;;;;;18.99;60.64;100192.56;5068971;28;1622;-60
2021/01/14 10:35:20;;;;;;;;;;;;;;;18.96;60.45;100174.97;5060930;28;1605;-60
2021/01/14 10:37:46;;;;;;;;;;;;;;;18.97;60.15;100179.31;5055089;28;757;-59
2021/01/14 10:40:18;;;;;;;;;;;;;;;18.98;60.32;100164.94;5051937;28;1332;-60
2021/01/14 10:42:47;;;;;;;;;;;;;;;19.02;60.47;100165.47;5052787;28;1882;-60
2021/01/14 10:45:13;;;;;;;;;;;;;;;18.98;60.41;100164.94;5052252;28;1525;-60
2021/01/14 10:47:42;;;;;;;;;;;;;;;18.96;59.88;100134.78;5054829;28;1580;-60
2021/01/14 10:50:23;;;;;;;;;;;;;;;18.98;60.58;100138.16;5049509;28;1402;-60
2021/01/14 10:52:55;;;;;;;;;;;;;;;19.00;60.06;100121.91;5054483;28;1350;-60
2021/01/14 10:55:21;;;;;;;;;;;;;;;19.05;59.60;100115.09;5047780;28;1458;-60
2021/01/14 10:57:50;;;;;;;;;;;;;;;18.97;60.19;100111.50;5054413;28;1402;-60
2021/01/14 11:00:23;;;;;;;;;;;;;;;18.94;59.78;100099.25;5053140;28;1254;-60
2021/01/14 11:02:58;;;;;;;;;;;;;;;18.94;60.09;100098.41;5051223;28;1902;-59
2021/01/14 11:05:37;;;;;;;;;;;;;;;18.91;60.70;100099.53;5053106;28;1215;-60
2021/01/14 11:08:10;;;;;;;;;;;;;;;18.94;59.91;100095.72;5053533;28;1258;-60
2021/01/14 11:10:35;;;;;;;;;;;;;;;18.98;60.06;100094.41;5058380;28;1628;-61
2021/01/14 11:13:08;;;;;;;;;;;;;;;19.02;60.00;100087.75;5059172;28;1734;-60
2021/01/14 11:15:34;;;;;;;;;;;;;;;19.00;60.35;100071.84;5066042;28;1711;-61
2021/01/14 11:18:00;;;;;;;;;;;;;;;18.97;60.38;100053.38;5057979;28;1769;-61
2021/01/14 11:20:25;;;;;;;;;;;;;;;18.97;60.55;100061.44;5054220;28;1740;-61
2021/01/14 11:22:50;;;;;;;;;;;;;;;18.97;60.66;100071.31;5054544;28;1909;-61
2021/01/14 11:25:16;;;;;;;;;;;;;;;18.96;60.51;100064.25;5054278;28;1424;-60
2021/01/14 11:27:41;;;;;;;;;;;;;;;18.96;61.02;100057.06;5053891;28;1412;-61
2021/01/14 11:30:07;;;;;;;;;;;;;;;18.97;60.77;100045.34;5054261;28;1239;-60
2021/01/14 11:32:32;;;;;;;;;;;;;;;18.98;60.82;100044.38;5054521;28;751;-60
2021/01/14 11:34:57;;;;;;;;;;;;;;;19.02;60.79;100040.38;5036701;28;1370;-60
2021/01/14 11:37:23;;;;;;;;;;;;;;;19.02;60.76;100037.72;5054502;28;861;-60
2021/01/14 11:39:48;;;;;;;;;;;;;;;19.02;60.68;100032.34;5055786;28;754;-60
2021/01/14 11:42:13;;;;;;;;;;;;;;;19.02;60.84;100026.13;5058939;28;1940;-61
2021/01/14 11:44:39;;;;;;;;;;;;;;;19.11;60.77;100040.47;5061433;28;1750;-61
2021/01/14 11:47:04;;;;;;;;;;;;;;;19.02;58.14;100031.47;5069418;28;1540;-63
2021/01/14 11:49:30;;;;;;;;;;;;;;;19.14;57.24;100032.97;5066078;28;1648;-61
2021/01/14 11:51:55;;;;;;;;;;;;;;;19.14;58.33;100021.38;5059525;28;1570;-62
2021/01/14 11:54:21;;;;;;;;;;;;;;;19.16;58.79;100030.09;5064128;28;1684;-61
2021/01/14 11:56:50;;;;;;;;;;;;;;;19.14;58.82;100029.41;5067303;28;1767;-59
2021/01/14 11:59:15;;;;;;;;;;;;;;;19.12;58.87;100029.59;5064866;28;1857;-62
2021/01/14 12:01:40;;;;;;;;;;;;;;;19.14;58.73;100029.41;5070938;28;1902;-60
2021/01/14 12:04:06;;;;;;;;;;;;;;;19.15;59.15;100004.31;5070369;28;1759;-60
2021/01/14 12:06:31;;;;;;;;;;;;;;;19.08;59.10;100006.78;5057827;28;758;-61
2021/01/14 12:08:57;;;;;;;;;;;;;;;19.04;59.03;99997.38;5057708;28;1486;-60
2021/01/14 12:11:24;;;;;;;;;;;;;;;19.03;58.95;99991.16;5053420;28;1496;-61
2021/01/14 12:13:49;;;;;;;;;;;;;;;19.05;58.80;100015.13;5057821;28;781;-61
2021/01/14 12:16:15;;;;;;;;;;;;;;;19.03;58.90;100011.75;5057688;28;846;-60
2021/01/14 12:18:40;;;;;;;;;;;;;;;19.05;58.92;100021.31;5057649;28;793;-61
2021/01/14 12:21:05;;;;;;;;;;;;;;;19.04;58.73;100030.34;5057379;28;1918;-60
2021/01/14 12:23:31;;;;;;;;;;;;;;;19.08;58.69;100025.53;5057418;28;804;-60
2021/01/14 12:25:56;;;;;;;;;;;;;;;19.07;58.53;100035.38;5060703;28;1668;-61
2021/01/14 12:28:22;;;;;;;;;;;;;;;19.00;60.12;100034.34;5068739;28;1825;-61
2021/01/14 12:30:47;;;;;;;;;;;;;;;18.96;60.09;100032.97;5060258;28;1699;-60
2021/01/14 12:33:12;;;;;;;;;;;;;;;18.90;59.62;100003.25;5060864;28;1760;-60
2021/01/14 12:35:38;;;;;;;;;;;;;;;18.88;55.72;100014.97;5056948;28;1497;-60
2021/01/14 12:38:03;;;;;;;;;;;;;;;18.86;55.52;100016.09;5057019;28;841;-60
2021/01/14 12:40:29;;;;;;;;;;;;;;;18.84;55.22;100012.72;5047905;28;1619;-59
2021/01/14 12:42:55;;;;;;;;;;;;;;;18.82;54.83;99999.50;5052373;28;1945;-60
2021/01/14 12:45:20;;;;;;;;;;;;;;;18.84;54.17;100020.75;5046203;28;1636;-63
2021/01/14 12:47:45;;;;;;;;;;;;;;;18.81;53.94;100013.06;5054161;28;1585;-62
2021/01/14 12:50:11;;;;;;;;;;;;;;;18.85;55.48;100035.84;5050938;28;1498;-60